Time;durP1;ratioP1;P1;durP2;ratioP2;P2;SDS_P1;SDS_P2;PMS_P1;PMS_P2;Temp;Humidity;BMP_temperature;BMP_pressure;BME280_temperature;BME280_humidity;BME280_pressure;Samples;Min_cycle;Max_cycle;Signal;HPM_P1;HPM_P2
2024/01/20 00:00:33;;;;;;;26.02;7.05;;;;;;;-16.08;64.90;100746.00;5006865;28;20124;-70
2024/01/20 00:03:00;;;;;;;24.58;6.28;;;;;;;-16.06;64.90;100748.63;5008450;28;20041;-70
2024/01/20 00:05:27;;;;;;;21.45;6.10;;;;;;;-16.04;65.25;100749.63;5015587;28;20132;-70
2024/01/20 00:07:53;;;;;;;21.23;6.00;;;;;;;-16.04;65.05;100745.50;5003613;28;20578;-69
2024/01/20 00:10:22;;;;;;;17.65;6.93;;;;;;;-16.01;64.79;100739.88;5013291;28;20129;-76
2024/01/20 00:12:49;;;;;;;18.45;6.03;;;;;;;-15.99;64.91;100740.88;5018408;28;20117;-75
2024/01/20 00:15:16;;;;;;;26.75;6.82;;;;;;;-15.97;64.86;100734.34;5016305;28;20125;-75
2024/01/20 00:17:43;;;;;;;21.90;7.28;;;;;;;-15.93;65.17;100743.88;5021182;28;20132;-75
2024/01/20 00:20:10;;;;;;;17.55;5.90;;;;;;;-15.90;64.98;100739.13;5018379;28;20129;-75
2024/01/20 00:22:37;;;;;;;17.10;6.30;;;;;;;-15.88;65.30;100739.22;5016457;28;20156;-75
2024/01/20 00:25:05;;;;;;;14.55;4.85;;;;;;;-15.84;65.09;100737.09;5022189;28;20137;-75
2024/01/20 00:27:34;;;;;;;16.27;5.18;;;;;;;-15.83;65.15;100736.34;5020905;28;20381;-75
2024/01/20 00:30:01;;;;;;;13.40;4.50;;;;;;;-15.79;64.64;100738.34;5018477;28;20133;-72
2024/01/20 00:32:28;;;;;;;8.32;3.90;;;;;;;-15.76;65.19;100735.22;5020912;28;20077;-71
2024/01/20 00:34:55;;;;;;;16.67;4.25;;;;;;;-15.78;65.15;100727.56;5017962;28;20547;-71
2024/01/20 00:37:22;;;;;;;14.05;4.15;;;;;;;-15.73;65.41;100726.31;5021835;28;20136;-71
2024/01/20 00:39:49;;;;;;;18.00;5.07;;;;;;;-15.69;65.02;100731.56;5024321;28;20136;-72
2024/01/20 00:42:16;;;;;;;22.35;7.15;;;;;;;-15.66;64.97;100729.31;5018025;28;20128;-72
2024/01/20 00:44:44;;;;;;;22.05;6.10;;;;;;;-15.64;65.27;100726.19;5016936;28;20129;-72
2024/01/20 00:47:11;;;;;;;35.67;10.65;;;;;;;-15.61;65.31;100718.03;5007022;28;20065;-73
2024/01/20 00:49:38;;;;;;;24.40;8.43;;;;;;;-15.59;64.69;100709.00;5019673;28;20057;-72
2024/01/20 00:52:06;;;;;;;32.83;11.52;;;;;;;-15.57;65.00;100708.38;5016493;28;20807;-72
2024/01/20 00:54:32;;;;;;;30.67;7.32;;;;;;;-15.59;64.91;100696.47;5022468;28;20128;-71
2024/01/20 00:56:59;;;;;;;17.65;6.47;;;;;;;-15.53;65.45;100710.38;5013703;28;20137;-72
2024/01/20 00:59:26;;;;;;;20.00;6.53;;;;;;;-15.48;65.03;100724.84;5015447;28;20828;-72
2024/01/20 01:01:55;;;;;;;14.15;5.90;;;;;;;-15.45;64.92;100736.03;5020502;28;20136;-72
2024/01/20 01:04:21;;;;;;;23.60;5.72;;;;;;;-15.41;65.32;100740.53;5020713;28;20042;-72
2024/01/20 01:06:49;;;;;;;18.85;6.47;;;;;;;-15.36;65.46;100733.38;5021738;28;20133;-72
2024/01/20 01:09:16;;;;;;;20.70;6.00;;;;;;;-15.34;64.96;100740.28;5018965;28;20526;-72
2024/01/20 01:11:43;;;;;;;15.75;4.78;;;;;;;-15.31;65.35;100733.00;5022016;28;20140;-72
2024/01/20 01:14:10;;;;;;;16.38;4.13;;;;;;;-15.25;65.33;100739.25;5021075;28;20128;-72
2024/01/20 01:16:37;;;;;;;16.30;4.75;;;;;;;-15.22;65.37;100740.38;5022177;28;20049;-72
2024/01/20 01:19:05;;;;;;;14.70;4.90;;;;;;;-15.18;65.19;100752.38;5021872;28;20077;-70
2024/01/20 01:21:32;;;;;;;13.70;4.35;;;;;;;-15.13;65.38;100745.22;5014887;28;20077;-70
2024/01/20 01:23:59;;;;;;;15.32;5.47;;;;;;;-15.12;65.17;100741.94;5014668;28;20060;-70
2024/01/20 01:26:26;;;;;;;18.23;4.53;;;;;;;-15.08;65.08;100738.94;5019774;28;20472;-71
2024/01/20 01:28:53;;;;;;;21.77;4.85;;;;;;;-15.05;65.30;100737.53;5007113;28;20097;-70
2024/01/20 01:31:20;;;;;;;21.52;5.05;;;;;;;-15.00;65.58;100737.91;5020520;28;20131;-70
2024/01/20 01:33:47;;;;;;;16.80;4.95;;;;;;;-14.95;65.51;100740.75;5021509;28;20584;-70
2024/01/20 01:36:15;;;;;;;19.67;6.55;;;;;;;-14.91;65.50;100745.28;5020903;28;20124;-70
2024/01/20 01:38:42;;;;;;;18.75;5.75;;;;;;;-14.88;65.66;100741.38;5020586;28;20050;-70
2024/01/20 01:41:09;;;;;;;22.85;5.45;;;;;;;-14.84;65.42;100743.34;5029134;28;20136;-75
2024/01/20 01:43:36;;;;;;;15.10;3.47;;;;;;;-14.78;65.63;100740.44;5013879;28;20078;-74
2024/01/20 01:46:04;;;;;;;18.17;5.30;;;;;;;-14.73;65.30;100743.31;5024190;28;20128;-74
2024/01/20 01:48:33;;;;;;;20.65;5.28;;;;;;;-14.68;65.60;100752.09;5022586;28;20489;-74
2024/01/20 01:51:04;;;;;;;20.27;6.00;;;;;;;-14.64;65.61;100751.56;5014179;28;20056;-74
2024/01/20 01:53:33;;;;;;;16.15;5.28;;;;;;;-14.58;65.68;100759.56;5021687;28;20140;-74
2024/01/20 01:56:01;;;;;;;24.88;6.05;;;;;;;-14.52;65.51;100765.06;5019968;28;20077;-74
2024/01/20 01:58:28;;;;;;;21.30;5.50;;;;;;;-14.48;65.70;100767.06;5025822;28;20069;-74
2024/01/20 02:00:55;;;;;;;20.10;5.85;;;;;;;-14.43;65.90;100759.84;5014625;28;20128;-74
2024/01/20 02:03:23;;;;;;;26.63;6.03;;;;;;;-14.39;65.75;100765.25;5020571;28;20135;-74
2024/01/20 02:05:50;;;;;;;17.63;5.55;;;;;;;-14.33;65.78;100763.97;5023668;28;20861;-74
2024/01/20 02:08:17;;;;;;;17.58;5.90;;;;;;;-14.28;65.87;100771.09;5020521;28;20589;-74
2024/01/20 02:10:47;;;;;;;21.50;5.88;;;;;;;-14.22;65.69;100769.00;5019172;28;20053;-74
2024/01/20 02:13:15;;;;;;;14.65;4.97;;;;;;;-14.18;65.81;100765.94;5019701;28;20164;-74
2024/01/20 02:15:42;;;;;;;15.18;5.10;;;;;;;-14.16;65.78;100769.47;5019767;28;20091;-74
2024/01/20 02:18:08;;;;;;;21.17;5.88;;;;;;;-14.07;65.91;100779.31;5020168;28;20053;-75
2024/01/20 02:20:36;;;;;;;13.63;5.05;;;;;;;-14.02;65.77;100773.00;5020812;28;20153;-74
2024/01/20 02:23:04;;;;;;;16.05;5.78;;;;;;;-13.96;65.73;100775.13;5019736;28;20125;-74
2024/01/20 02:25:31;;;;;;;17.00;5.38;;;;;;;-13.91;65.98;100784.75;5021954;28;20084;-74
2024/01/20 02:27:58;;;;;;;13.68;3.90;;;;;;;-13.84;65.98;100780.19;5016861;28;20140;-74
2024/01/20 02:30:25;;;;;;;16.02;3.97;;;;;;;-13.80;66.08;100779.66;5026531;28;20841;-78
2024/01/20 02:32:52;;;;;;;13.15;5.07;;;;;;;-13.74;66.06;100777.59;5018434;28;20136;-78
2024/01/20 02:35:19;;;;;;;18.63;5.05;;;;;;;-13.69;66.01;100786.38;5031691;28;20555;-78
2024/01/20 02:37:46;;;;;;;19.85;5.28;;;;;;;-13.63;66.04;100791.84;5018905;28;20045;-78
2024/01/20 02:40:15;;;;;;;13.27;4.32;;;;;;;-13.57;66.09;100794.81;5023121;28;20136;-78
2024/01/20 02:42:42;;;;;;;13.82;4.47;;;;;;;-13.52;66.27;100788.47;5024220;28;20037;-80
2024/01/20 02:45:09;;;;;;;14.63;4.38;;;;;;;-13.48;66.17;100787.94;5025061;28;20087;-78
2024/01/20 02:47:36;;;;;;;13.70;4.55;;;;;;;-13.40;66.33;100793.53;5020524;28;20121;-78
2024/01/20 02:50:03;;;;;;;11.15;4.05;;;;;;;-13.35;66.24;100794.75;5030239;28;20085;-77
2024/01/20 02:52:30;;;;;;;10.77;3.17;;;;;;;-13.29;66.51;100794.31;5019019;28;20124;-76
2024/01/20 02:54:57;;;;;;;8.65;2.50;;;;;;;-13.24;66.38;100803.97;5022363;28;20124;-77
2024/01/20 02:57:25;;;;;;;8.77;3.13;;;;;;;-13.18;66.30;100790.91;5027001;28;20128;-76
2024/01/20 02:59:52;;;;;;;9.80;3.50;;;;;;;-13.13;66.23;100791.25;5018330;28;20120;-78
2024/01/20 03:02:20;;;;;;;8.00;2.70;;;;;;;-13.09;66.37;100789.06;5025418;28;20095;-77
2024/01/20 03:04:47;;;;;;;13.27;4.75;;;;;;;-13.02;66.72;100790.38;5024157;28;20050;-77
2024/01/20 03:07:14;;;;;;;9.95;2.97;;;;;;;-12.96;66.62;100794.97;5019405;28;20069;-77
2024/01/20 03:09:41;;;;;;;6.05;2.22;;;;;;;-12.96;66.43;100789.94;5020033;28;20427;-77
2024/01/20 03:12:08;;;;;;;9.43;2.88;;;;;;;-12.86;66.64;100802.44;5019623;28;20128;-77
2024/01/20 03:14:37;;;;;;;11.32;2.28;;;;;;;-12.87;66.48;100803.19;5021855;28;20057;-77
2024/01/20 03:17:04;;;;;;;11.02;2.78;;;;;;;-12.77;66.66;100803.03;5027031;28;20050;-76
2024/01/20 03:19:31;;;;;;;11.25;2.50;;;;;;;-12.76;66.58;100804.78;5016806;28;20076;-77
2024/01/20 03:21:58;;;;;;;11.68;3.33;;;;;;;-12.67;66.96;100819.69;5020517;28;20049;-77
2024/01/20 03:24:25;;;;;;;11.55;2.83;;;;;;;-12.61;66.71;100815.06;5020088;28;20578;-77
2024/01/20 03:26:54;;;;;;;12.23;3.42;;;;;;;-12.59;66.92;100808.50;5026193;28;20049;-77
2024/01/20 03:29:22;;;;;;;9.63;2.78;;;;;;;-12.51;66.68;100806.53;5017179;28;20140;-77
2024/01/20 03:31:51;;;;;;;9.20;3.42;;;;;;;-12.47;66.96;100811.88;5023566;28;20057;-76
2024/01/20 03:34:18;;;;;;;10.05;2.88;;;;;;;-12.42;66.65;100813.06;5022047;28;20845;-77
2024/01/20 03:36:46;;;;;;;8.05;1.98;;;;;;;-12.37;66.98;100816.78;5019202;28;20535;-77
2024/01/20 03:39:13;;;;;;;9.60;2.20;;;;;;;-12.31;66.68;100811.28;5021381;28;20053;-78
2024/01/20 03:41:39;;;;;;;13.50;2.90;;;;;;;-12.26;66.84;100822.59;5022128;28;20105;-78
2024/01/20 03:44:06;;;;;;;8.82;3.17;;;;;;;-12.20;66.95;100820.47;5018896;28;20129;-79
2024/01/20 03:46:33;;;;;;;15.77;3.83;;;;;;;-12.15;66.92;100821.69;5019560;28;20088;-78
2024/01/20 03:49:02;;;;;;;13.20;2.75;;;;;;;-12.11;67.23;100812.66;5023274;28;20080;-79
2024/01/20 03:51:29;;;;;;;8.00;2.63;;;;;;;-12.07;67.27;100826.34;5024783;28;20092;-78
2024/01/20 03:53:56;;;;;;;7.80;1.98;;;;;;;-11.99;67.22;100830.28;5023472;28;20136;-78
2024/01/20 03:56:23;;;;;;;8.88;1.80;;;;;;;-11.96;67.32;100828.84;5015362;28;20104;-79
2024/01/20 03:58:50;;;;;;;7.72;2.60;;;;;;;-11.91;66.92;100834.22;5029775;28;20141;-76
2024/01/20 04:01:17;;;;;;;8.30;2.97;;;;;;;-11.84;67.22;100835.50;5025902;28;20069;-79
2024/01/20 04:03:44;;;;;;;11.00;3.08;;;;;;;-11.83;67.15;100828.03;5025444;28;20488;-79
2024/01/20 04:06:13;;;;;;;10.15;2.63;;;;;;;-11.76;67.17;100829.31;5029811;28;20100;-79
2024/01/20 04:08:40;;;;;;;8.02;2.95;;;;;;;-11.71;67.38;100833.91;5031566;28;20128;-78
2024/01/20 04:11:07;;;;;;;12.65;2.50;;;;;;;-11.67;67.71;100830.81;5016281;28;20504;-79
2024/01/20 04:13:34;;;;;;;10.85;2.85;;;;;;;-11.60;67.50;100831.22;5023482;28;20480;-79
2024/01/20 04:16:00;;;;;;;6.82;2.40;;;;;;;-11.56;67.94;100833.16;5013284;28;20144;-79
2024/01/20 04:18:27;;;;;;;7.47;2.58;;;;;;;-11.51;67.27;100829.31;5028182;28;20084;-78
2024/01/20 04:20:54;;;;;;;6.00;2.45;;;;;;;-11.46;67.71;100838.06;5032920;28;20133;-78
2024/01/20 04:23:23;;;;;;;8.63;2.20;;;;;;;-11.42;67.97;100838.34;5040667;28;20111;-79
2024/01/20 04:25:50;;;;;;;4.32;1.92;;;;;;;-11.35;67.26;100829.56;5030528;28;20156;-78
2024/01/20 04:28:16;;;;;;;9.07;1.60;;;;;;;-11.31;68.11;100834.03;5028682;28;20050;-79
2024/01/20 04:30:43;;;;;;;8.20;1.95;;;;;;;-11.25;67.62;100841.97;5025338;28;20136;-79
2024/01/20 04:33:10;;;;;;;4.68;1.45;;;;;;;-11.20;67.66;100844.81;5016302;28;20053;-79
2024/01/20 04:35:37;;;;;;;5.38;1.35;;;;;;;-11.14;67.84;100849.38;5026039;28;20050;-79
2024/01/20 04:38:04;;;;;;;5.57;1.52;;;;;;;-11.11;68.17;100844.53;5036021;28;20575;-79
2024/01/20 04:40:33;;;;;;;5.22;0.90;;;;;;;-11.04;68.22;100849.22;5025235;28;20120;-79
2024/01/20 04:43:00;;;;;;;4.80;1.40;;;;;;;-10.97;67.99;100848.81;5031822;28;20453;-79
2024/01/20 04:45:27;;;;;;;8.20;1.95;;;;;;;-10.91;68.60;100849.22;5017449;28;20760;-79
2024/01/20 04:47:54;;;;;;;7.93;1.45;;;;;;;-10.85;68.52;100853.78;5024756;28;20080;-79
2024/01/20 04:50:21;;;;;;;4.22;0.98;;;;;;;-10.78;68.17;100859.34;5025608;28;20542;-74
2024/01/20 04:52:48;;;;;;;7.20;2.05;;;;;;;-10.77;68.67;100868.66;5024660;28;20140;-74
2024/01/20 04:55:15;;;;;;;5.72;1.77;;;;;;;-10.71;68.37;100869.84;5018742;28;20555;-74
2024/01/20 04:57:43;;;;;;;11.23;2.35;;;;;;;-10.65;68.51;100868.56;5023828;28;20125;-75
2024/01/20 05:00:10;;;;;;;7.35;1.38;;;;;;;-10.57;68.49;100885.09;5016376;28;20129;-74
2024/01/20 05:02:37;;;;;;;6.13;2.38;;;;;;;-10.52;68.20;100893.84;5021094;28;20133;-74
2024/01/20 05:05:05;;;;;;;10.80;2.53;;;;;;;-10.48;68.34;100892.41;5025882;28;20132;-75
2024/01/20 05:07:32;;;;;;;7.43;2.17;;;;;;;-10.45;68.98;100887.53;5011946;28;20478;-74
2024/01/20 05:09:59;;;;;;;6.25;2.60;;;;;;;-10.40;68.52;100891.22;5021222;28;20134;-71
2024/01/20 05:12:26;;;;;;;6.40;2.50;;;;;;;-10.35;68.68;100900.00;5022134;28;20484;-71
2024/01/20 05:14:54;;;;;;;5.82;1.88;;;;;;;-10.31;69.01;100896.84;5021576;28;20125;-71
2024/01/20 05:17:21;;;;;;;6.95;2.33;;;;;;;-10.25;69.29;100905.63;5021425;28;20129;-71
2024/01/20 05:19:48;;;;;;;6.35;1.42;;;;;;;-10.23;68.51;100899.00;5020525;28;20085;-71
2024/01/20 05:22:17;;;;;;;11.40;1.95;;;;;;;-10.18;69.27;100903.59;5020194;28;20124;-72
2024/01/20 05:24:44;;;;;;;5.20;1.55;;;;;;;-10.14;69.51;100904.63;5021886;28;20459;-71
2024/01/20 05:27:11;;;;;;;3.20;1.20;;;;;;;-10.10;69.38;100907.47;5017663;28;20124;-71
2024/01/20 05:29:38;;;;;;;5.95;1.67;;;;;;;-10.05;69.45;100910.25;5019499;28;20065;-71
2024/01/20 05:32:06;;;;;;;4.32;1.77;;;;;;;-10.02;69.45;100907.94;5019298;28;20473;-71
2024/01/20 05:34:33;;;;;;;4.85;1.38;;;;;;;-9.96;69.18;100915.91;5019998;28;20080;-71
2024/01/20 05:37:00;;;;;;;5.57;1.52;;;;;;;-9.92;68.90;100919.50;5018780;28;20069;-71
2024/01/20 05:39:27;;;;;;;6.88;1.80;;;;;;;-9.88;69.32;100926.50;5023442;28;20128;-71
2024/01/20 05:41:54;;;;;;;5.55;2.22;;;;;;;-9.84;69.36;100924.25;5021505;28;20528;-71
2024/01/20 05:44:21;;;;;;;5.85;1.85;;;;;;;-9.84;68.86;100921.72;5023414;28;20565;-71
2024/01/20 05:46:48;;;;;;;5.63;2.03;;;;;;;-9.76;69.26;100934.00;5023555;28;20511;-71
2024/01/20 05:49:16;;;;;;;8.98;1.80;;;;;;;-9.73;69.52;100935.06;5026254;28;20132;-71
2024/01/20 05:51:43;;;;;;;5.35;1.45;;;;;;;-9.68;69.50;100941.28;5023452;28;20042;-71
2024/01/20 05:54:10;;;;;;;5.75;1.38;;;;;;;-9.64;69.49;100943.19;5020549;28;20085;-71
2024/01/20 05:56:37;;;;;;;4.97;1.55;;;;;;;-9.61;69.61;100955.19;5020048;28;20121;-71
2024/01/20 05:59:04;;;;;;;2.85;1.20;;;;;;;-9.58;69.93;100957.91;5022548;28;20547;-74
2024/01/20 06:01:31;;;;;;;5.13;1.58;;;;;;;-9.53;69.37;100960.72;5019401;28;20132;-73
2024/01/20 06:03:58;;;;;;;2.90;1.10;;;;;;;-9.50;69.20;100969.38;5020983;28;20133;-74
2024/01/20 06:06:26;;;;;;;7.32;2.03;;;;;;;-9.47;69.17;100971.22;5013583;28;20133;-73
2024/01/20 06:08:53;;;;;;;5.03;1.20;;;;;;;-9.44;69.83;100969.75;5011207;28;20125;-74
2024/01/20 06:11:22;;;;;;;4.25;1.30;;;;;;;-9.41;69.43;100969.91;5023902;28;20472;-74
2024/01/20 06:13:49;;;;;;;5.70;1.02;;;;;;;-9.35;69.27;100971.91;5023978;28;20041;-74
2024/01/20 06:16:16;;;;;;;5.07;2.15;;;;;;;-9.30;69.70;100984.88;5019037;28;20149;-77
2024/01/20 06:18:43;;;;;;;5.28;1.60;;;;;;;-9.29;69.54;100984.94;5021033;28;20126;-77
2024/01/20 06:21:10;;;;;;;5.05;1.65;;;;;;;-9.24;69.69;100998.78;5023397;28;20133;-78
2024/01/20 06:23:38;;;;;;;12.57;1.40;;;;;;;-9.20;69.62;100995.63;5023251;28;20077;-76
2024/01/20 06:26:05;;;;;;;3.83;1.10;;;;;;;-9.18;69.43;101003.34;5020844;28;20134;-76
2024/01/20 06:28:32;;;;;;;3.17;1.50;;;;;;;-9.14;69.87;101007.81;5021659;28;20042;-80
2024/01/20 06:31:00;;;;;;;4.05;1.65;;;;;;;-9.12;69.73;101008.78;5019886;28;20133;-74
2024/01/20 06:33:27;;;;;;;4.90;1.40;;;;;;;-9.07;69.64;101015.00;5026618;28;20049;-76
2024/01/20 06:35:54;;;;;;;4.82;1.80;;;;;;;-9.05;69.73;101015.97;5020356;28;20136;-75
2024/01/20 06:38:21;;;;;;;3.33;1.50;;;;;;;-9.01;70.46;101020.44;5011223;28;20599;-76
2024/01/20 06:40:49;;;;;;;5.57;1.63;;;;;;;-8.98;70.22;101023.16;5020133;28;20069;-74
2024/01/20 06:43:16;;;;;;;3.97;1.45;;;;;;;-8.95;69.61;101032.59;5022323;28;20121;-76
2024/01/20 06:45:45;;;;;;;5.47;1.52;;;;;;;-8.94;69.93;101040.31;5023797;28;20120;-76
2024/01/20 06:48:13;;;;;;;4.30;1.73;;;;;;;-8.92;70.09;101041.25;5027399;28;20049;-77
2024/01/20 06:50:43;;;;;;;4.05;1.83;;;;;;;-8.87;69.58;101054.22;5027895;28;20128;-79
2024/01/20 06:53:11;;;;;;;5.78;1.77;;;;;;;-8.85;70.30;101061.94;5023132;28;20476;-76
2024/01/20 06:55:38;;;;;;;3.25;1.38;;;;;;;-8.82;69.88;101065.53;5022965;28;20056;-75
2024/01/20 06:58:07;;;;;;;5.30;1.83;;;;;;;-8.82;69.52;101060.44;5019250;28;20099;-75
2024/01/20 07:00:34;;;;;;;5.20;1.50;;;;;;;-8.77;70.38;101066.69;5020350;28;20124;-75
2024/01/20 07:03:00;;;;;;;3.60;2.03;;;;;;;-8.73;69.70;101072.81;5015919;28;20157;-74
2024/01/20 07:05:27;;;;;;;4.68;1.80;;;;;;;-8.70;70.55;101075.53;5017994;28;20137;-74
2024/01/20 07:07:54;;;;;;;6.05;1.80;;;;;;;-8.68;69.98;101079.03;5027715;28;20063;-78
2024/01/20 07:10:21;;;;;;;3.53;1.02;;;;;;;-8.67;70.04;101078.25;5019424;28;20236;-77
2024/01/20 07:12:48;;;;;;;7.18;2.03;;;;;;;-8.63;70.03;101081.81;5022468;28;20073;-76
2024/01/20 07:15:17;;;;;;;5.78;1.45;;;;;;;-8.62;69.84;101089.53;5019840;28;20136;-77
2024/01/20 07:17:43;;;;;;;3.90;1.35;;;;;;;-8.58;70.08;101093.13;5031634;28;20124;-76
2024/01/20 07:20:12;;;;;;;4.97;2.17;;;;;;;-8.56;70.46;101094.09;5010186;28;20454;-72
2024/01/20 07:22:38;;;;;;;2.72;0.90;;;;;;;-8.55;69.78;101096.72;5011714;28;20137;-73
2024/01/20 07:25:06;;;;;;;4.15;1.48;;;;;;;-8.53;70.26;101105.28;5019230;28;20136;-71
2024/01/20 07:27:33;;;;;;;4.82;1.17;;;;;;;-8.50;69.71;101109.69;5021146;28;20149;-74
2024/01/20 07:30:01;;;;;;;4.57;1.20;;;;;;;-8.49;70.44;101119.03;5013702;28;20122;-85
2024/01/20 07:32:29;;;;;;;3.63;1.33;;;;;;;-8.46;69.60;101126.81;5015457;28;20117;-85
2024/01/20 07:34:56;;;;;;;3.15;1.33;;;;;;;-8.44;70.25;101134.53;5025575;28;20595;-83
2024/01/20 07:37:24;;;;;;;4.13;1.45;;;;;;;-8.43;70.26;101138.81;5009771;28;20503;-84
2024/01/20 07:39:51;;;;;;;6.03;1.30;;;;;;;-8.40;69.67;101141.53;5019375;28;20050;-84
2024/01/20 07:42:18;;;;;;;3.00;1.33;;;;;;;-8.38;70.01;101143.38;5019826;28;20084;-84
2024/01/20 07:44:45;;;;;;;6.15;1.60;;;;;;;-8.38;69.86;101151.00;5023605;28;20136;-84
2024/01/20 07:47:14;;;;;;;5.82;1.77;;;;;;;-8.35;69.83;101152.84;5019837;28;20076;-84
2024/01/20 07:49:42;;;;;;;3.28;1.30;;;;;;;-8.32;70.17;101163.19;5029197;28;20054;-85
2024/01/20 07:52:09;;;;;;;4.90;1.52;;;;;;;-8.32;70.46;101165.72;5018904;28;20144;-85
2024/01/20 07:54:36;;;;;;;5.78;1.70;;;;;;;-8.30;70.62;101170.09;5031074;28;20529;-84
2024/01/20 07:57:03;;;;;;;5.55;1.60;;;;;;;-8.28;70.38;101172.75;5022866;28;20835;-85
2024/01/20 07:59:30;;;;;;;6.13;1.67;;;;;;;-8.27;70.47;101174.47;5026013;28;20130;-84
2024/01/20 08:01:57;;;;;;;5.97;1.67;;;;;;;-8.24;69.81;101182.28;5024895;28;20136;-84
2024/01/20 08:04:24;;;;;;;4.38;1.70;;;;;;;-8.24;70.54;101187.34;5027371;28;20155;-84
2024/01/20 08:06:53;;;;;;;5.88;1.52;;;;;;;-8.21;69.94;101194.28;5012164;28;20050;-84
2024/01/20 08:09:20;;;;;;;4.57;1.58;;;;;;;-8.20;70.23;101191.84;5023196;28;20121;-85
2024/01/20 08:11:47;;;;;;;5.57;1.33;;;;;;;-8.16;69.71;101196.31;5022056;28;20461;-85
2024/01/20 08:14:14;;;;;;;3.78;1.42;;;;;;;-8.15;70.07;101192.97;5022571;28;20076;-84
2024/01/20 08:16:41;;;;;;;4.95;1.60;;;;;;;-8.13;70.36;101195.63;5025369;28;20133;-84
2024/01/20 08:19:08;;;;;;;4.28;1.63;;;;;;;-8.11;70.16;101197.47;5019542;28;20132;-75
2024/01/20 08:21:35;;;;;;;3.10;1.38;;;;;;;-8.12;70.23;101195.69;5015618;28;20389;-75
2024/01/20 08:24:04;;;;;;;3.28;1.30;;;;;;;-8.05;70.22;101212.19;5018924;28;20677;-76
2024/01/20 08:26:32;;;;;;;3.97;1.52;;;;;;;-8.05;70.29;101213.06;5015524;28;20077;-75
2024/01/20 08:28:59;;;;;;;6.65;1.92;;;;;;;-8.04;70.37;101219.88;5010568;28;20512;-75
2024/01/20 08:31:27;;;;;;;6.63;1.60;;;;;;;-7.99;70.09;101216.75;5003921;28;20057;-76
2024/01/20 08:33:54;;;;;;;8.98;2.25;;;;;;;-7.97;70.22;101223.69;5021462;28;20049;-76
2024/01/20 08:36:21;;;;;;;3.65;1.27;;;;;;;-7.95;70.12;101229.69;5020737;28;20482;-76
2024/01/20 08:38:48;;;;;;;4.40;2.00;;;;;;;-7.93;70.65;101242.50;5017824;28;20121;-76
2024/01/20 08:41:17;;;;;;;5.07;1.27;;;;;;;-7.91;70.34;101253.63;5019788;28;20082;-83
2024/01/20 08:43:45;;;;;;;2.45;1.00;;;;;;;-7.89;70.83;101249.50;5016390;28;20077;-84
2024/01/20 08:46:13;;;;;;;5.57;0.98;;;;;;;-7.91;70.52;101257.03;5017670;28;20054;-84
2024/01/20 08:48:40;;;;;;;3.33;1.58;;;;;;;-7.85;70.27;101271.78;5027480;28;20046;-83
2024/01/20 08:51:07;;;;;;;4.97;1.67;;;;;;;-7.85;69.92;101276.84;5021773;28;20136;-83
2024/01/20 08:53:34;;;;;;;5.25;2.30;;;;;;;-7.81;70.75;101283.84;5019495;28;20185;-80
2024/01/20 08:56:02;;;;;;;6.43;2.25;;;;;;;-7.79;70.11;101298.41;5026756;28;20124;-84
2024/01/20 08:58:30;;;;;;;7.82;2.80;;;;;;;-7.84;70.55;101292.16;5022282;28;20101;-82
2024/01/20 09:00:57;;;;;;;5.30;2.40;;;;;;;-7.74;70.13;101301.22;5014919;28;20132;-84
2024/01/20 09:03:25;;;;;;;9.52;1.80;;;;;;;-7.71;69.92;101303.94;5021500;28;20045;-82
2024/01/20 09:05:52;;;;;;;3.05;1.15;;;;;;;-7.70;70.21;101313.31;5015313;28;20050;-81
2024/01/20 09:08:19;;;;;;;3.22;1.60;;;;;;;-7.66;70.15;101320.34;5011709;28;20491;-82
2024/01/20 09:10:46;;;;;;;3.95;1.42;;;;;;;-7.65;70.47;101318.69;5006073;28;21407;-81
2024/01/20 09:13:13;;;;;;;3.70;1.58;;;;;;;-7.62;70.47;101318.88;4983884;28;20115;-84
2024/01/20 09:15:41;;;;;;;7.30;2.17;;;;;;;-7.62;69.96;101327.34;5025802;28;20080;-80
2024/01/20 09:18:08;;;;;;;4.35;1.70;;;;;;;-7.57;70.32;101330.19;5028138;28;20452;-81
2024/01/20 09:20:35;;;;;;;5.15;1.55;;;;;;;-7.59;70.43;101327.53;5024867;28;20551;-81
2024/01/20 09:23:02;;;;;;;5.45;1.00;;;;;;;-7.53;69.96;101341.41;5026388;28;20125;-82
2024/01/20 09:25:29;;;;;;;8.35;1.40;;;;;;;-7.51;69.80;101344.91;5022619;28;20054;-80
2024/01/20 09:27:56;;;;;;;4.68;1.27;;;;;;;-7.49;70.02;101354.34;5032992;28;20781;-83
2024/01/20 09:30:23;;;;;;;5.07;1.38;;;;;;;-7.47;69.72;101359.53;5018649;28;20145;-79
2024/01/20 09:32:52;;;;;;;3.78;1.27;;;;;;;-7.45;69.51;101365.63;5016071;28;20046;-81
2024/01/20 09:35:19;;;;;;;4.28;1.52;;;;;;;-7.47;69.82;101362.97;5035416;28;20065;-82
2024/01/20 09:37:46;;;;;;;6.50;3.20;;;;;;;-7.41;69.58;101378.56;5025130;28;20525;-80
2024/01/20 09:40:13;;;;;;;12.85;3.75;;;;;;;-7.39;69.57;101381.22;5019043;28;20045;-81
2024/01/20 09:42:41;;;;;;;6.03;1.77;;;;;;;-7.37;69.44;101384.75;5027622;28;20472;-84
2024/01/20 09:45:09;;;;;;;4.53;1.85;;;;;;;-7.38;69.54;101380.41;5020920;28;20132;-83
2024/01/20 09:47:36;;;;;;;7.75;1.65;;;;;;;-7.34;70.01;101393.41;5030336;28;20117;-78
2024/01/20 09:50:05;;;;;;;3.10;1.30;;;;;;;-7.32;69.75;101393.50;5023530;28;20568;-72
2024/01/20 09:52:32;;;;;;;4.38;1.60;;;;;;;-7.30;69.48;101396.13;5020728;28;20056;-72
2024/01/20 09:55:14;;;;;;;4.05;1.33;;;;;;;-7.28;69.48;101400.53;5017711;28;20061;-74
2024/01/20 09:57:43;;;;;;;3.70;1.02;;;;;;;-7.27;69.56;101399.72;5022252;28;20132;-74
2024/01/20 10:00:13;;;;;;;3.83;1.10;;;;;;;-7.25;69.66;101404.91;5018340;28;20132;-75
2024/01/20 10:02:41;;;;;;;7.63;1.27;;;;;;;-7.24;69.38;101411.75;5016778;28;20080;-74
2024/01/20 10:05:11;;;;;;;4.38;1.10;;;;;;;-7.24;69.55;101410.06;5018711;28;20161;-74
2024/01/20 10:07:38;;;;;;;4.68;1.20;;;;;;;-7.25;69.57;101410.00;5006640;28;20049;-75
2024/01/20 10:10:06;;;;;;;5.65;1.38;;;;;;;-7.21;69.71;101424.66;5017126;28;20132;-74
2024/01/20 10:12:33;;;;;;;4.03;1.23;;;;;;;-7.22;69.83;101436.47;5021242;28;20160;-73
2024/01/20 10:15:00;;;;;;;2.42;1.20;;;;;;;-7.21;69.32;101442.44;5022501;28;20520;-74
2024/01/20 10:17:27;;;;;;;2.78;1.05;;;;;;;-7.20;69.53;101447.63;5022078;28;20168;-74
2024/01/20 10:19:54;;;;;;;4.03;1.45;;;;;;;-7.20;69.56;101451.84;5010203;28;20052;-74
2024/01/20 10:22:23;;;;;;;4.00;0.90;;;;;;;-7.20;69.26;101455.25;5016061;28;20132;-73
2024/01/20 10:24:50;;;;;;;3.53;1.25;;;;;;;-7.19;69.39;101464.63;5018229;28;20073;-73
2024/01/20 10:27:18;;;;;;;3.10;1.00;;;;;;;-7.19;69.36;101481.56;5019232;28;20548;-73
2024/01/20 10:29:46;;;;;;;3.80;1.23;;;;;;;-7.19;69.49;101482.44;5017574;28;20400;-73
2024/01/20 10:32:13;;;;;;;2.92;1.10;;;;;;;-7.18;69.18;101491.81;5014115;28;20128;-72
2024/01/20 10:34:40;;;;;;;3.40;1.13;;;;;;;-7.18;69.45;101494.34;5019363;28;20125;-72
2024/01/20 10:37:11;;;;;;;8.98;4.65;;;;;;;-7.16;69.14;101492.78;5008064;28;20045;-72
2024/01/20 10:39:42;;;;;;;3.28;1.77;;;;;;;-7.17;69.20;101501.22;5020477;28;20049;-77
2024/01/20 10:42:12;;;;;;;2.05;1.20;;;;;;;-7.15;69.74;101501.28;5016098;28;20045;-78
2024/01/20 10:44:41;;;;;;;3.00;1.13;;;;;;;-7.17;68.97;101508.84;5025095;28;20057;-78
2024/01/20 10:47:16;;;;;;;4.20;0.93;;;;;;;-7.16;69.42;101513.13;5012691;28;20051;-79
2024/01/20 10:49:46;;;;;;;3.88;1.23;;;;;;;-7.18;68.90;101509.59;5005427;28;20042;-79
2024/01/20 10:52:15;;;;;;;3.08;1.05;;;;;;;-7.20;69.11;101501.03;5016894;28;20049;-79
2024/01/20 10:54:45;;;;;;;3.50;1.15;;;;;;;-7.17;69.38;101506.31;5027424;28;20057;-77
2024/01/20 10:57:12;;;;;;;2.83;1.20;;;;;;;-7.16;69.06;101508.06;5031769;28;20150;-77
2024/01/20 10:59:42;;;;;;;2.50;0.85;;;;;;;-7.15;69.34;101514.00;5030262;28;20073;-77
2024/01/20 11:02:11;;;;;;;4.43;1.15;;;;;;;-7.15;69.35;101517.44;5015835;28;20038;-78
2024/01/20 11:04:43;;;;;;;7.28;1.20;;;;;;;-7.15;69.47;101524.19;5024434;28;20057;-78
2024/01/20 11:07:10;;;;;;;2.90;0.80;;;;;;;-7.18;68.95;101522.31;5018143;28;20078;-78
2024/01/20 11:09:37;;;;;;;2.08;1.00;;;;;;;-7.13;69.00;101527.69;5019692;28;20077;-79
2024/01/20 11:12:07;;;;;;;3.50;1.05;;;;;;;-7.14;68.93;101525.97;5019496;28;20507;-79
2024/01/20 11:14:35;;;;;;;2.42;1.02;;;;;;;-7.14;68.98;101547.19;5021077;28;20053;-78
2024/01/20 11:17:12;;;;;;;2.40;1.27;;;;;;;-7.13;68.97;101554.00;5024199;28;20133;-78
2024/01/20 11:19:39;;;;;;;1.70;0.65;;;;;;;-7.12;69.11;101555.78;5028678;28;20120;-79